sensor_id;sensor_type;location;lat;lon;timestamp;temperature;humidity
8872;DHT22;4472;52.092;9.820;2022-07-05T00:01:24;14.90;99.90
8872;DHT22;4472;52.092;9.820;2022-07-05T00:04:11;14.80;99.90
8872;DHT22;4472;52.092;9.820;2022-07-05T00:06:58;14.80;99.90
8872;DHT22;4472;52.092;9.820;2022-07-05T00:10:04;14.90;99.90
8872;DHT22;4472;52.092;9.820;2022-07-05T00:12:51;14.90;99.90
8872;DHT22;4472;52.092;9.820;2022-07-05T00:15:40;14.90;99.90
8872;DHT22;4472;52.092;9.820;2022-07-05T00:18:27;14.90;99.90
8872;DHT22;4472;52.092;9.820;2022-07-05T00:21:14;14.80;99.90
8872;DHT22;4472;52.092;9.820;2022-07-05T00:24:02;14.70;99.90
8872;DHT22;4472;52.092;9.820;2022-07-05T00:26:49;14.70;99.90
8872;DHT22;4472;52.092;9.820;2022-07-05T00:29:36;14.70;99.90
8872;DHT22;4472;52.092;9.820;2022-07-05T00:32:25;14.70;99.90
8872;DHT22;4472;52.092;9.820;2022-07-05T00:35:12;14.70;99.90
8872;DHT22;4472;52.092;9.820;2022-07-05T00:37:59;14.60;99.90
8872;DHT22;4472;52.092;9.820;2022-07-05T00:40:46;14.60;99.90
8872;DHT22;4472;52.092;9.820;2022-07-05T00:43:33;14.50;99.90
8872;DHT22;4472;52.092;9.820;2022-07-05T00:46:20;13.80;99.90
8872;DHT22;4472;52.092;9.820;2022-07-05T00:49:09;14.30;99.90
8872;DHT22;4472;52.092;9.820;2022-07-05T00:51:57;14.20;99.90
8872;DHT22;4472;52.092;9.820;2022-07-05T00:54:45;14.20;99.90
8872;DHT22;4472;52.092;9.820;2022-07-05T00:57:33;14.30;99.90
8872;DHT22;4472;52.092;9.820;2022-07-05T01:00:21;14.20;99.90
8872;DHT22;4472;52.092;9.820;2022-07-05T01:03:08;14.20;99.90
8872;DHT22;4472;52.092;9.820;2022-07-05T01:05:56;14.30;99.90
8872;DHT22;4472;52.092;9.820;2022-07-05T01:08:44;14.20;99.90
8872;DHT22;4472;52.092;9.820;2022-07-05T01:11:32;14.30;99.90
8872;DHT22;4472;52.092;9.820;2022-07-05T01:14:21;14.30;99.90
8872;DHT22;4472;52.092;9.820;2022-07-05T01:17:09;14.20;99.90
8872;DHT22;4472;52.092;9.820;2022-07-05T01:19:56;14.20;99.90
8872;DHT22;4472;52.092;9.820;2022-07-05T01:22:52;14.20;99.90
8872;DHT22;4472;52.092;9.820;2022-07-05T01:25:40;14.00;99.90
8872;DHT22;4472;52.092;9.820;2022-07-05T01:28:28;14.10;99.90
8872;DHT22;4472;52.092;9.820;2022-07-05T01:31:15;14.10;99.90
8872;DHT22;4472;52.092;9.820;2022-07-05T01:34:03;14.10;99.90
8872;DHT22;4472;52.092;9.820;2022-07-05T01:36:50;14.10;99.90
8872;DHT22;4472;52.092;9.820;2022-07-05T01:39:39;14.10;99.90
8872;DHT22;4472;52.092;9.820;2022-07-05T01:42:26;14.10;99.90
8872;DHT22;4472;52.092;9.820;2022-07-05T01:45:13;14.10;99.90
8872;DHT22;4472;52.092;9.820;2022-07-05T01:48:22;14.10;99.90
8872;DHT22;4472;52.092;9.820;2022-07-05T01:51:20;14.00;99.90
8872;DHT22;4472;52.092;9.820;2022-07-05T01:54:09;13.90;99.90
8872;DHT22;4472;52.092;9.820;2022-07-05T01:56:58;13.80;99.90
8872;DHT22;4472;52.092;9.820;2022-07-05T01:59:45;13.90;99.90
8872;DHT22;4472;52.092;9.820;2022-07-05T02:02:32;13.90;99.90
8872;DHT22;4472;52.092;9.820;2022-07-05T02:05:19;13.90;99.90
8872;DHT22;4472;52.092;9.820;2022-07-05T02:08:07;14.10;99.90
8872;DHT22;4472;52.092;9.820;2022-07-05T02:10:54;13.80;99.90
8872;DHT22;4472;52.092;9.820;2022-07-05T02:13:42;13.80;99.90
8872;DHT22;4472;52.092;9.820;2022-07-05T02:16:30;13.70;99.90
8872;DHT22;4472;52.092;9.820;2022-07-05T02:19:17;13.70;99.90
8872;DHT22;4472;52.092;9.820;2022-07-05T02:22:04;13.70;99.90
8872;DHT22;4472;52.092;9.820;2022-07-05T02:24:52;13.60;99.90
8872;DHT22;4472;52.092;9.820;2022-07-05T02:27:39;13.70;99.90
8872;DHT22;4472;52.092;9.820;2022-07-05T02:30:27;13.70;99.90
8872;DHT22;4472;52.092;9.820;2022-07-05T02:33:15;13.60;99.90
8872;DHT22;4472;52.092;9.820;2022-07-05T02:36:09;13.50;99.90
8872;DHT22;4472;52.092;9.820;2022-07-05T02:38:57;13.50;99.90
8872;DHT22;4472;52.092;9.820;2022-07-05T02:41:44;13.50;99.90
8872;DHT22;4472;52.092;9.820;2022-07-05T02:44:31;13.40;99.90
8872;DHT22;4472;52.092;9.820;2022-07-05T02:47:19;13.40;99.90
8872;DHT22;4472;52.092;9.820;2022-07-05T02:50:09;13.40;99.90
8872;DHT22;4472;52.092;9.820;2022-07-05T02:52:56;13.40;99.90
8872;DHT22;4472;52.092;9.820;2022-07-05T02:55:43;13.40;99.90
8872;DHT22;4472;52.092;9.820;2022-07-05T02:58:30;13.40;99.90
8872;DHT22;4472;52.092;9.820;2022-07-05T03:01:17;13.40;99.90
8872;DHT22;4472;52.092;9.820;2022-07-05T03:04:06;13.40;99.90
8872;DHT22;4472;52.092;9.820;2022-07-05T03:06:55;13.40;99.90
8872;DHT22;4472;52.092;9.820;2022-07-05T03:09:42;13.30;99.90
8872;DHT22;4472;52.092;9.820;2022-07-05T03:12:30;13.20;99.90
8872;DHT22;4472;52.092;9.820;2022-07-05T03:15:17;13.30;99.90
8872;DHT22;4472;52.092;9.820;2022-07-05T03:18:04;13.20;99.90
8872;DHT22;4472;52.092;9.820;2022-07-05T03:20:53;13.20;99.90
8872;DHT22;4472;52.092;9.820;2022-07-05T03:23:40;13.20;99.90
8872;DHT22;4472;52.092;9.820;2022-07-05T03:26:27;13.20;99.90
8872;DHT22;4472;52.092;9.820;2022-07-05T03:29:14;13.20;99.90
8872;DHT22;4472;52.092;9.820;2022-07-05T03:32:02;13.20;99.90
8872;DHT22;4472;52.092;9.820;2022-07-05T03:34:49;13.20;99.90
8872;DHT22;4472;52.092;9.820;2022-07-05T03:37:37;13.30;99.90
8872;DHT22;4472;52.092;9.820;2022-07-05T03:40:25;13.30;99.90
8872;DHT22;4472;52.092;9.820;2022-07-05T03:43:12;13.30;99.90
8872;DHT22;4472;52.092;9.820;2022-07-05T03:45:59;13.30;99.90
8872;DHT22;4472;52.092;9.820;2022-07-05T03:48:46;13.30;99.90
8872;DHT22;4472;52.092;9.820;2022-07-05T03:51:34;13.30;99.90
8872;DHT22;4472;52.092;9.820;2022-07-05T03:54:22;13.90;99.90
8872;DHT22;4472;52.092;9.820;2022-07-05T03:57:09;13.30;99.90
8872;DHT22;4472;52.092;9.820;2022-07-05T03:59:57;13.40;99.90
8872;DHT22;4472;52.092;9.820;2022-07-05T04:02:44;13.40;99.90
8872;DHT22;4472;52.092;9.820;2022-07-05T04:05:31;13.50;99.90
8872;DHT22;4472;52.092;9.820;2022-07-05T04:08:18;13.60;99.90
8872;DHT22;4472;52.092;9.820;2022-07-05T04:11:07;13.70;99.90
8872;DHT22;4472;52.092;9.820;2022-07-05T04:13:55;13.80;99.90
8872;DHT22;4472;52.092;9.820;2022-07-05T04:16:42;13.80;99.90
8872;DHT22;4472;52.092;9.820;2022-07-05T04:19:29;13.90;99.90
8872;DHT22;4472;52.092;9.820;2022-07-05T04:22:16;14.00;99.90
8872;DHT22;4472;52.092;9.820;2022-07-05T04:25:04;14.10;99.90
8872;DHT22;4472;52.092;9.820;2022-07-05T04:28:05;14.10;99.90
8872;DHT22;4472;52.092;9.820;2022-07-05T04:30:52;14.20;99.90
8872;DHT22;4472;52.092;9.820;2022-07-05T04:33:39;14.30;99.90
8872;DHT22;4472;52.092;9.820;2022-07-05T04:36:26;14.40;99.90
8872;DHT22;4472;52.092;9.820;2022-07-05T04:39:13;14.40;99.90
8872;DHT22;4472;52.092;9.820;2022-07-05T04:42:01;14.50;99.90
8872;DHT22;4472;52.092;9.820;2022-07-05T04:44:49;14.60;99.90
8872;DHT22;4472;52.092;9.820;2022-07-05T04:47:36;14.70;99.90
8872;DHT22;4472;52.092;9.820;2022-07-05T04:50:23;14.80;99.90
8872;DHT22;4472;52.092;9.820;2022-07-05T04:53:11;14.80;99.90
8872;DHT22;4472;52.092;9.820;2022-07-05T04:55:58;14.80;99.90
8872;DHT22;4472;52.092;9.820;2022-07-05T04:58:45;14.90;99.90
8872;DHT22;4472;52.092;9.820;2022-07-05T05:01:33;14.90;99.90
8872;DHT22;4472;52.092;9.820;2022-07-05T05:04:21;14.90;99.90
8872;DHT22;4472;52.092;9.820;2022-07-05T05:07:08;15.00;99.90
8872;DHT22;4472;52.092;9.820;2022-07-05T05:09:55;15.10;99.90
8872;DHT22;4472;52.092;9.820;2022-07-05T05:12:42;15.10;99.90
8872;DHT22;4472;52.092;9.820;2022-07-05T05:15:30;15.10;99.90
8872;DHT22;4472;52.092;9.820;2022-07-05T05:18:18;15.10;99.90
8872;DHT22;4472;52.092;9.820;2022-07-05T05:21:10;15.20;99.90
8872;DHT22;4472;52.092;9.820;2022-07-05T05:23:57;15.20;99.90
8872;DHT22;4472;52.092;9.820;2022-07-05T05:26:44;15.30;99.90
8872;DHT22;4472;52.092;9.820;2022-07-05T05:29:32;15.30;99.90
8872;DHT22;4472;52.092;9.820;2022-07-05T05:32:19;15.40;99.90
8872;DHT22;4472;52.092;9.820;2022-07-05T05:35:08;15.40;99.90
8872;DHT22;4472;52.092;9.820;2022-07-05T05:37:56;15.50;99.90
8872;DHT22;4472;52.092;9.820;2022-07-05T05:40:43;15.60;99.90
8872;DHT22;4472;52.092;9.820;2022-07-05T05:43:30;15.60;99.90
8872;DHT22;4472;52.092;9.820;2022-07-05T05:46:17;15.60;99.90
8872;DHT22;4472;52.092;9.820;2022-07-05T05:49:05;15.80;99.90
8872;DHT22;4472;52.092;9.820;2022-07-05T05:51:53;15.90;99.90
8872;DHT22;4472;52.092;9.820;2022-07-05T05:54:40;16.00;99.90
8872;DHT22;4472;52.092;9.820;2022-07-05T05:57:27;16.20;99.90
8872;DHT22;4472;52.092;9.820;2022-07-05T06:00:15;16.30;99.90
8872;DHT22;4472;52.092;9.820;2022-07-05T06:03:03;16.50;99.90
8872;DHT22;4472;52.092;9.820;2022-07-05T06:05:50;16.80;99.90
8872;DHT22;4472;52.092;9.820;2022-07-05T06:08:39;17.00;99.90
8872;DHT22;4472;52.092;9.820;2022-07-05T06:11:26;17.20;99.90
8872;DHT22;4472;52.092;9.820;2022-07-05T06:14:13;17.40;99.90
8872;DHT22;4472;52.092;9.820;2022-07-05T06:17:00;17.50;99.90
8872;DHT22;4472;52.092;9.820;2022-07-05T06:19:48;17.60;99.90
8872;DHT22;4472;52.092;9.820;2022-07-05T06:22:35;17.60;99.90
8872;DHT22;4472;52.092;9.820;2022-07-05T06:25:24;17.80;99.90
8872;DHT22;4472;52.092;9.820;2022-07-05T06:28:11;17.90;99.90
8872;DHT22;4472;52.092;9.820;2022-07-05T06:30:58;18.10;99.90
8872;DHT22;4472;52.092;9.820;2022-07-05T06:33:45;18.20;99.90
8872;DHT22;4472;52.092;9.820;2022-07-05T06:36:33;18.40;99.90
8872;DHT22;4472;52.092;9.820;2022-07-05T06:39:20;18.60;99.90
8872;DHT22;4472;52.092;9.820;2022-07-05T06:42:08;18.80;99.90
8872;DHT22;4472;52.092;9.820;2022-07-05T06:44:55;18.90;99.90
8872;DHT22;4472;52.092;9.820;2022-07-05T06:47:43;19.00;99.90
8872;DHT22;4472;52.092;9.820;2022-07-05T06:50:31;19.20;99.90
8872;DHT22;4472;52.092;9.820;2022-07-05T06:53:18;19.30;99.90
8872;DHT22;4472;52.092;9.820;2022-07-05T06:56:06;19.50;99.90
8872;DHT22;4472;52.092;9.820;2022-07-05T06:58:55;19.70;99.90
8872;DHT22;4472;52.092;9.820;2022-07-05T07:01:42;19.70;99.90
8872;DHT22;4472;52.092;9.820;2022-07-05T07:04:29;19.80;99.90
8872;DHT22;4472;52.092;9.820;2022-07-05T07:07:16;19.80;99.90
8872;DHT22;4472;52.092;9.820;2022-07-05T07:10:21;19.70;99.90
8872;DHT22;4472;52.092;9.820;2022-07-05T07:13:08;19.50;99.90
8872;DHT22;4472;52.092;9.820;2022-07-05T07:15:56;19.40;99.90
8872;DHT22;4472;52.092;9.820;2022-07-05T07:18:43;19.50;99.90
8872;DHT22;4472;52.092;9.820;2022-07-05T07:24:18;19.70;99.90
8872;DHT22;4472;52.092;9.820;2022-07-05T07:27:06;20.20;99.70
8872;DHT22;4472;52.092;9.820;2022-07-05T07:29:53;20.70;99.90
8872;DHT22;4472;52.092;9.820;2022-07-05T07:32:42;21.20;99.90
8872;DHT22;4472;52.092;9.820;2022-07-05T07:35:29;21.50;98.20
8872;DHT22;4472;52.092;9.820;2022-07-05T07:38:16;21.50;96.70
8872;DHT22;4472;52.092;9.820;2022-07-05T07:41:03;21.30;96.10
8872;DHT22;4472;52.092;9.820;2022-07-05T07:43:51;21.10;96.00
8872;DHT22;4472;52.092;9.820;2022-07-05T07:46:38;21.10;95.80
8872;DHT22;4472;52.092;9.820;2022-07-05T07:49:27;21.10;96.90
8872;DHT22;4472;52.092;9.820;2022-07-05T07:52:15;21.50;97.00
8872;DHT22;4472;52.092;9.820;2022-07-05T07:55:02;21.90;97.30
8872;DHT22;4472;52.092;9.820;2022-07-05T07:57:50;22.10;95.90
8872;DHT22;4472;52.092;9.820;2022-07-05T08:00:37;22.10;93.80
8872;DHT22;4472;52.092;9.820;2022-07-05T08:03:24;21.90;93.50
8872;DHT22;4472;52.092;9.820;2022-07-05T08:06:12;21.70;94.70
8872;DHT22;4472;52.092;9.820;2022-07-05T08:09:00;21.50;95.00
8872;DHT22;4472;52.092;9.820;2022-07-05T08:11:48;21.40;94.80
8872;DHT22;4472;52.092;9.820;2022-07-05T08:14:35;21.40;94.40
8872;DHT22;4472;52.092;9.820;2022-07-05T08:17:22;21.40;94.30
8872;DHT22;4472;52.092;9.820;2022-07-05T08:20:10;21.40;93.80
8872;DHT22;4472;52.092;9.820;2022-07-05T08:23:16;21.30;92.60
8872;DHT22;4472;52.092;9.820;2022-07-05T08:26:03;21.10;93.50
8872;DHT22;4472;52.092;9.820;2022-07-05T08:28:50;21.10;93.50
8872;DHT22;4472;52.092;9.820;2022-07-05T08:31:39;21.20;94.20
8872;DHT22;4472;52.092;9.820;2022-07-05T08:34:26;21.40;94.80
8872;DHT22;4472;52.092;9.820;2022-07-05T08:37:13;21.70;94.50
8872;DHT22;4472;52.092;9.820;2022-07-05T08:40:06;21.80;92.80
8872;DHT22;4472;52.092;9.820;2022-07-05T08:42:55;21.90;91.80
8872;DHT22;4472;52.092;9.820;2022-07-05T08:45:44;21.80;91.30
8872;DHT22;4472;52.092;9.820;2022-07-05T08:48:32;21.80;91.60
8872;DHT22;4472;52.092;9.820;2022-07-05T08:51:21;21.90;90.40
8872;DHT22;4472;52.092;9.820;2022-07-05T08:54:10;21.80;90.10
8872;DHT22;4472;52.092;9.820;2022-07-05T08:56:59;21.80;90.50
8872;DHT22;4472;52.092;9.820;2022-07-05T08:59:47;21.90;89.20
8872;DHT22;4472;52.092;9.820;2022-07-05T09:02:35;21.90;87.80
8872;DHT22;4472;52.092;9.820;2022-07-05T09:05:24;22.00;88.00
8872;DHT22;4472;52.092;9.820;2022-07-05T09:08:14;22.00;88.20
8872;DHT22;4472;52.092;9.820;2022-07-05T09:11:02;22.10;88.30
8872;DHT22;4472;52.092;9.820;2022-07-05T09:13:51;22.20;89.20
8872;DHT22;4472;52.092;9.820;2022-07-05T09:16:39;22.40;87.70
8872;DHT22;4472;52.092;9.820;2022-07-05T09:19:26;22.50;87.40
8872;DHT22;4472;52.092;9.820;2022-07-05T09:22:15;22.60;87.60
8872;DHT22;4472;52.092;9.820;2022-07-05T09:25:13;22.60;87.40
8872;DHT22;4472;52.092;9.820;2022-07-05T09:28:02;22.60;84.90
8872;DHT22;4472;52.092;9.820;2022-07-05T09:30:51;22.70;84.80
8872;DHT22;4472;52.092;9.820;2022-07-05T09:33:48;22.70;83.20
8872;DHT22;4472;52.092;9.820;2022-07-05T09:36:47;22.60;82.00
8872;DHT22;4472;52.092;9.820;2022-07-05T09:39:39;22.50;80.10
8872;DHT22;4472;52.092;9.820;2022-07-05T09:42:26;22.40;82.60
8872;DHT22;4472;52.092;9.820;2022-07-05T09:45:21;22.40;80.90
8872;DHT22;4472;52.092;9.820;2022-07-05T09:48:11;22.40;78.80
8872;DHT22;4472;52.092;9.820;2022-07-05T09:51:08;22.30;79.00
8872;DHT22;4472;52.092;9.820;2022-07-05T09:53:57;22.20;78.80
8872;DHT22;4472;52.092;9.820;2022-07-05T09:56:46;22.20;80.40
8872;DHT22;4472;52.092;9.820;2022-07-05T09:59:33;22.40;81.20
8872;DHT22;4472;52.092;9.820;2022-07-05T10:02:34;22.40;78.80
8872;DHT22;4472;52.092;9.820;2022-07-05T10:05:24;22.50;79.50
8872;DHT22;4472;52.092;9.820;2022-07-05T10:08:12;22.70;78.80
8872;DHT22;4472;52.092;9.820;2022-07-05T10:11:00;22.70;80.20
8872;DHT22;4472;52.092;9.820;2022-07-05T10:13:49;22.80;78.60
8872;DHT22;4472;52.092;9.820;2022-07-05T10:16:36;22.90;77.40
8872;DHT22;4472;52.092;9.820;2022-07-05T10:19:28;23.10;78.00
8872;DHT22;4472;52.092;9.820;2022-07-05T10:22:20;23.30;76.80
8872;DHT22;4472;52.092;9.820;2022-07-05T10:25:08;23.30;75.90
8872;DHT22;4472;52.092;9.820;2022-07-05T10:27:57;23.50;76.40
8872;DHT22;4472;52.092;9.820;2022-07-05T10:30:45;23.60;76.80
8872;DHT22;4472;52.092;9.820;2022-07-05T10:33:33;23.70;75.20
8872;DHT22;4472;52.092;9.820;2022-07-05T10:36:20;23.70;76.30
8872;DHT22;4472;52.092;9.820;2022-07-05T10:39:10;23.80;74.20
8872;DHT22;4472;52.092;9.820;2022-07-05T10:41:58;24.00;74.10
8872;DHT22;4472;52.092;9.820;2022-07-05T10:44:45;24.10;73.60
8872;DHT22;4472;52.092;9.820;2022-07-05T10:47:32;24.20;74.20
8872;DHT22;4472;52.092;9.820;2022-07-05T10:50:22;24.10;73.40
8872;DHT22;4472;52.092;9.820;2022-07-05T10:53:10;24.00;71.40
8872;DHT22;4472;52.092;9.820;2022-07-05T10:56:09;24.10;74.10
8872;DHT22;4472;52.092;9.820;2022-07-05T10:59:05;24.10;72.10
8872;DHT22;4472;52.092;9.820;2022-07-05T11:02:12;24.70;71.10
8872;DHT22;4472;52.092;9.820;2022-07-05T11:04:59;23.60;70.10
8872;DHT22;4472;52.092;9.820;2022-07-05T11:07:57;23.70;72.70
8872;DHT22;4472;52.092;9.820;2022-07-05T11:11:10;23.70;69.00
8872;DHT22;4472;52.092;9.820;2022-07-05T11:13:59;23.90;70.30
8872;DHT22;4472;52.092;9.820;2022-07-05T11:16:47;24.00;71.00
8872;DHT22;4472;52.092;9.820;2022-07-05T11:19:35;23.90;70.00
8872;DHT22;4472;52.092;9.820;2022-07-05T11:23:01;23.80;70.20
8872;DHT22;4472;52.092;9.820;2022-07-05T11:25:48;23.80;68.70
8872;DHT22;4472;52.092;9.820;2022-07-05T11:28:43;23.90;71.60
8872;DHT22;4472;52.092;9.820;2022-07-05T11:31:40;24.10;71.40
8872;DHT22;4472;52.092;9.820;2022-07-05T11:34:32;24.20;69.00
8872;DHT22;4472;52.092;9.820;2022-07-05T11:37:21;24.10;68.60
8872;DHT22;4472;52.092;9.820;2022-07-05T11:40:31;24.00;70.00
8872;DHT22;4472;52.092;9.820;2022-07-05T11:43:25;24.00;69.10
8872;DHT22;4472;52.092;9.820;2022-07-05T11:46:15;24.10;71.00
8872;DHT22;4472;52.092;9.820;2022-07-05T11:49:03;24.20;69.40
8872;DHT22;4472;52.092;9.820;2022-07-05T11:51:57;24.20;69.00
8872;DHT22;4472;52.092;9.820;2022-07-05T11:54:45;24.20;67.70
8872;DHT22;4472;52.092;9.820;2022-07-05T11:57:36;24.20;67.70
8872;DHT22;4472;52.092;9.820;2022-07-05T12:00:31;24.30;66.40
8872;DHT22;4472;52.092;9.820;2022-07-05T12:03:20;24.20;65.40
8872;DHT22;4472;52.092;9.820;2022-07-05T12:06:11;24.30;67.00
8872;DHT22;4472;52.092;9.820;2022-07-05T12:09:03;24.50;66.10
8872;DHT22;4472;52.092;9.820;2022-07-05T12:11:51;24.50;65.50
8872;DHT22;4472;52.092;9.820;2022-07-05T12:14:56;24.50;65.40
8872;DHT22;4472;52.092;9.820;2022-07-05T12:17:44;24.50;65.60
8872;DHT22;4472;52.092;9.820;2022-07-05T12:20:37;24.50;64.80
8872;DHT22;4472;52.092;9.820;2022-07-05T12:23:26;24.40;63.90
8872;DHT22;4472;52.092;9.820;2022-07-05T12:26:15;24.20;63.10
8872;DHT22;4472;52.092;9.820;2022-07-05T12:29:02;23.90;65.60
8872;DHT22;4472;52.092;9.820;2022-07-05T12:32:00;23.90;65.40
8872;DHT22;4472;52.092;9.820;2022-07-05T12:34:48;24.10;65.30
8872;DHT22;4472;52.092;9.820;2022-07-05T12:37:36;24.30;64.70
8872;DHT22;4472;52.092;9.820;2022-07-05T12:40:23;24.40;64.70
8872;DHT22;4472;52.092;9.820;2022-07-05T12:43:12;24.50;65.50
8872;DHT22;4472;52.092;9.820;2022-07-05T12:46:01;24.60;61.30
8872;DHT22;4472;52.092;9.820;2022-07-05T12:48:52;24.40;62.80
8872;DHT22;4472;52.092;9.820;2022-07-05T12:51:41;24.30;63.00
8872;DHT22;4472;52.092;9.820;2022-07-05T12:54:29;24.50;63.00
8872;DHT22;4472;52.092;9.820;2022-07-05T12:57:34;24.60;63.50
8872;DHT22;4472;52.092;9.820;2022-07-05T13:00:44;24.70;63.90
8872;DHT22;4472;52.092;9.820;2022-07-05T13:03:54;24.80;62.70
8872;DHT22;4472;52.092;9.820;2022-07-05T13:06:49;24.90;63.20
8872;DHT22;4472;52.092;9.820;2022-07-05T13:09:38;25.00;60.90
8872;DHT22;4472;52.092;9.820;2022-07-05T13:12:25;25.10;58.90
8872;DHT22;4472;52.092;9.820;2022-07-05T13:15:15;24.90;59.90
8872;DHT22;4472;52.092;9.820;2022-07-05T13:18:03;25.10;62.30
8872;DHT22;4472;52.092;9.820;2022-07-05T13:20:50;25.20;60.80
8872;DHT22;4472;52.092;9.820;2022-07-05T13:23:38;25.30;60.90
8872;DHT22;4472;52.092;9.820;2022-07-05T13:26:27;25.30;60.50
8872;DHT22;4472;52.092;9.820;2022-07-05T13:29:15;25.20;60.10
8872;DHT22;4472;52.092;9.820;2022-07-05T13:32:03;25.20;61.10
8872;DHT22;4472;52.092;9.820;2022-07-05T13:34:50;25.10;59.00
8872;DHT22;4472;52.092;9.820;2022-07-05T13:37:38;25.10;61.40
8872;DHT22;4472;52.092;9.820;2022-07-05T13:40:25;24.90;60.00
8872;DHT22;4472;52.092;9.820;2022-07-05T13:43:13;24.90;61.60
8872;DHT22;4472;52.092;9.820;2022-07-05T13:46:00;25.00;61.30
8872;DHT22;4472;52.092;9.820;2022-07-05T13:48:48;25.10;59.30
8872;DHT22;4472;52.092;9.820;2022-07-05T13:51:35;24.90;59.00
8872;DHT22;4472;52.092;9.820;2022-07-05T13:54:22;24.70;58.30
8872;DHT22;4472;52.092;9.820;2022-07-05T13:57:12;24.60;58.70
8872;DHT22;4472;52.092;9.820;2022-07-05T14:00:01;24.40;58.50
8872;DHT22;4472;52.092;9.820;2022-07-05T14:02:48;24.40;59.30
8872;DHT22;4472;52.092;9.820;2022-07-05T14:05:35;24.40;58.70
8872;DHT22;4472;52.092;9.820;2022-07-05T14:08:23;24.30;57.60
8872;DHT22;4472;52.092;9.820;2022-07-05T14:11:10;24.30;59.50
8872;DHT22;4472;52.092;9.820;2022-07-05T14:13:58;24.30;61.50
8872;DHT22;4472;52.092;9.820;2022-07-05T14:16:47;24.50;59.90
8872;DHT22;4472;52.092;9.820;2022-07-05T14:19:34;24.40;59.40
8872;DHT22;4472;52.092;9.820;2022-07-05T14:22:21;24.30;60.20
8872;DHT22;4472;52.092;9.820;2022-07-05T14:25:08;24.40;58.70
8872;DHT22;4472;52.092;9.820;2022-07-05T14:27:55;24.30;60.20
8872;DHT22;4472;52.092;9.820;2022-07-05T14:30:44;24.30;58.80
8872;DHT22;4472;52.092;9.820;2022-07-05T14:33:33;24.30;59.30
8872;DHT22;4472;52.092;9.820;2022-07-05T14:36:21;24.20;59.30
8872;DHT22;4472;52.092;9.820;2022-07-05T14:39:09;24.00;59.20
8872;DHT22;4472;52.092;9.820;2022-07-05T14:41:56;23.90;59.70
8872;DHT22;4472;52.092;9.820;2022-07-05T14:44:43;24.00;63.10
8872;DHT22;4472;52.092;9.820;2022-07-05T14:47:30;24.30;63.10
8872;DHT22;4472;52.092;9.820;2022-07-05T14:50:19;24.40;59.30
8872;DHT22;4472;52.092;9.820;2022-07-05T14:53:06;24.40;60.50
8872;DHT22;4472;52.092;9.820;2022-07-05T14:55:54;24.40;62.60
8872;DHT22;4472;52.092;9.820;2022-07-05T14:58:43;24.50;60.80
8872;DHT22;4472;52.092;9.820;2022-07-05T15:01:30;24.40;58.80
8872;DHT22;4472;52.092;9.820;2022-07-05T15:04:17;24.10;60.30
8872;DHT22;4472;52.092;9.820;2022-07-05T15:07:06;24.10;61.60
8872;DHT22;4472;52.092;9.820;2022-07-05T15:09:53;23.90;60.20
8872;DHT22;4472;52.092;9.820;2022-07-05T15:12:40;23.80;60.00
8872;DHT22;4472;52.092;9.820;2022-07-05T15:15:27;23.80;61.00
8872;DHT22;4472;52.092;9.820;2022-07-05T15:18:15;23.80;61.10
8872;DHT22;4472;52.092;9.820;2022-07-05T15:21:02;23.90;60.90
8872;DHT22;4472;52.092;9.820;2022-07-05T15:23:51;23.90;62.20
8872;DHT22;4472;52.092;9.820;2022-07-05T15:26:39;23.90;60.00
8872;DHT22;4472;52.092;9.820;2022-07-05T15:29:26;23.90;60.40
8872;DHT22;4472;52.092;9.820;2022-07-05T15:32:15;23.90;60.60
8872;DHT22;4472;52.092;9.820;2022-07-05T15:35:03;23.80;60.60
8872;DHT22;4472;52.092;9.820;2022-07-05T15:37:50;23.80;61.50
8872;DHT22;4472;52.092;9.820;2022-07-05T15:40:38;23.70;60.80
8872;DHT22;4472;52.092;9.820;2022-07-05T15:43:26;23.60;60.90
8872;DHT22;4472;52.092;9.820;2022-07-05T15:46:14;23.60;61.10
8872;DHT22;4472;52.092;9.820;2022-07-05T15:49:01;23.50;59.70
8872;DHT22;4472;52.092;9.820;2022-07-05T15:51:49;23.50;61.50
8872;DHT22;4472;52.092;9.820;2022-07-05T15:54:36;23.50;61.50
8872;DHT22;4472;52.092;9.820;2022-07-05T15:57:25;23.60;63.70
8872;DHT22;4472;52.092;9.820;2022-07-05T16:00:14;23.90;64.20
8872;DHT22;4472;52.092;9.820;2022-07-05T16:03:02;24.10;63.80
8872;DHT22;4472;52.092;9.820;2022-07-05T16:05:49;24.20;62.30
8872;DHT22;4472;52.092;9.820;2022-07-05T16:08:36;24.20;61.50
8872;DHT22;4472;52.092;9.820;2022-07-05T16:11:23;24.20;60.60
8872;DHT22;4472;52.092;9.820;2022-07-05T16:14:12;24.10;61.10
8872;DHT22;4472;52.092;9.820;2022-07-05T16:16:59;24.10;61.30
8872;DHT22;4472;52.092;9.820;2022-07-05T16:19:46;24.10;60.20
8872;DHT22;4472;52.092;9.820;2022-07-05T16:22:33;24.00;59.50
8872;DHT22;4472;52.092;9.820;2022-07-05T16:25:21;23.90;59.60
8872;DHT22;4472;52.092;9.820;2022-07-05T16:28:09;23.90;62.20
8872;DHT22;4472;52.092;9.820;2022-07-05T16:31:00;24.00;61.70
8872;DHT22;4472;52.092;9.820;2022-07-05T16:33:50;24.20;62.70
8872;DHT22;4472;52.092;9.820;2022-07-05T16:36:41;24.30;61.50
8872;DHT22;4472;52.092;9.820;2022-07-05T16:39:29;24.30;61.20
8872;DHT22;4472;52.092;9.820;2022-07-05T16:42:16;24.40;61.10
8872;DHT22;4472;52.092;9.820;2022-07-05T16:45:04;24.40;59.90
8872;DHT22;4472;52.092;9.820;2022-07-05T16:47:55;24.30;60.30
8872;DHT22;4472;52.092;9.820;2022-07-05T16:50:43;24.10;60.50
8872;DHT22;4472;52.092;9.820;2022-07-05T16:53:31;23.90;60.70
8872;DHT22;4472;52.092;9.820;2022-07-05T16:56:21;23.70;61.70
8872;DHT22;4472;52.092;9.820;2022-07-05T16:59:08;23.70;61.70
8872;DHT22;4472;52.092;9.820;2022-07-05T17:01:58;23.60;62.20
8872;DHT22;4472;52.092;9.820;2022-07-05T17:04:48;23.60;61.90
8872;DHT22;4472;52.092;9.820;2022-07-05T17:07:36;23.80;62.70
8872;DHT22;4472;52.092;9.820;2022-07-05T17:10:23;24.00;62.90
8872;DHT22;4472;52.092;9.820;2022-07-05T17:13:10;24.10;61.40
8872;DHT22;4472;52.092;9.820;2022-07-05T17:15:59;24.10;62.80
8872;DHT22;4472;52.092;9.820;2022-07-05T17:18:46;24.10;62.20
8872;DHT22;4472;52.092;9.820;2022-07-05T17:21:35;24.00;60.10
8872;DHT22;4472;52.092;9.820;2022-07-05T17:24:23;24.10;59.90
8872;DHT22;4472;52.092;9.820;2022-07-05T17:27:10;24.00;61.20
8872;DHT22;4472;52.092;9.820;2022-07-05T17:29:57;23.90;60.20
8872;DHT22;4472;52.092;9.820;2022-07-05T17:32:45;23.70;59.80
8872;DHT22;4472;52.092;9.820;2022-07-05T17:35:32;23.50;60.10
8872;DHT22;4472;52.092;9.820;2022-07-05T17:38:21;23.40;62.20
8872;DHT22;4472;52.092;9.820;2022-07-05T17:41:09;23.30;63.00
8872;DHT22;4472;52.092;9.820;2022-07-05T17:43:58;23.10;63.40
8872;DHT22;4472;52.092;9.820;2022-07-05T17:46:45;23.00;64.50
8872;DHT22;4472;52.092;9.820;2022-07-05T17:49:32;23.00;65.40
8872;DHT22;4472;52.092;9.820;2022-07-05T17:52:19;22.90;65.20
8872;DHT22;4472;52.092;9.820;2022-07-05T17:55:08;22.80;65.40
8872;DHT22;4472;52.092;9.820;2022-07-05T17:57:56;22.70;67.00
8872;DHT22;4472;52.092;9.820;2022-07-05T18:00:43;22.70;66.50
8872;DHT22;4472;52.092;9.820;2022-07-05T18:03:30;22.70;67.20
8872;DHT22;4472;52.092;9.820;2022-07-05T18:06:17;22.70;67.40
8872;DHT22;4472;52.092;9.820;2022-07-05T18:09:05;22.70;67.30
8872;DHT22;4472;52.092;9.820;2022-07-05T18:11:55;22.80;68.70
8872;DHT22;4472;52.092;9.820;2022-07-05T18:14:42;22.80;69.30
8872;DHT22;4472;52.092;9.820;2022-07-05T18:17:29;22.90;69.50
8872;DHT22;4472;52.092;9.820;2022-07-05T18:20:17;22.80;68.20
8872;DHT22;4472;52.092;9.820;2022-07-05T18:23:04;22.70;68.20
8872;DHT22;4472;52.092;9.820;2022-07-05T18:25:55;22.60;67.60